Time;durP1;ratioP1;P1;durP2;ratioP2;P2;SDS_P1;SDS_P2;PMS_P1;PMS_P2;Temp;Humidity;BMP_temperature;BMP_pressure;BME280_temperature;BME280_humidity;BME280_pressure;Samples;Min_cycle;Max_cycle;Signal;HPM_P1;HPM_P2
2021/12/05 00:23:33;;;;;;;2.37;2.17;;;16.40;49.30;;;;;;10306290;28;20264;-66
2021/12/05 00:29:09;;;;;;;2.37;2.17;;;16.40;49.30;;;;;;10328304;28;20187;-65
2021/12/05 00:46:24;;;;;;;2.97;2.67;;;16.40;48.80;;;;;;10329295;28;20258;-65
2021/12/05 00:57:48;;;;;;;3.03;2.73;;;16.50;48.70;;;;;;10329465;28;20198;-65
2021/12/05 01:14:48;;;;;;;3.03;2.73;;;16.40;49.00;;;;;;10328888;28;20265;-65
2021/12/05 01:20:16;;;;;;;3.80;3.50;;;16.50;49.10;;;;;;10328626;28;20183;-65
2021/12/05 01:25:44;;;;;;;3.80;3.50;;;16.40;49.10;;;;;;10327308;28;20238;-65
2021/12/05 01:31:14;;;;;;;4.23;3.80;;;16.40;49.30;;;;;;10331915;28;20223;-65
2021/12/05 01:36:47;;;;;;;3.70;3.40;;;16.30;49.30;;;;;;10295452;28;20200;-66
2021/12/05 01:42:52;;;;;;;3.50;3.20;;;16.30;49.20;;;;;;10296700;28;20241;-65
2021/12/05 02:29:19;;;;;;;4.10;3.70;;;16.40;48.60;;;;;;10330692;28;20264;-65
2021/12/05 02:34:02;;;;;;;4.87;4.37;;;16.40;48.90;;;;;;10333399;28;20223;-65
2021/12/05 02:39:38;;;;;;;4.30;3.90;;;16.40;48.80;;;;;;10333676;28;20233;-66
2021/12/05 02:45:01;;;;;;;4.80;4.30;;;16.40;48.70;;;;;;10331569;28;20339;-65
2021/12/05 02:50:29;;;;;;;4.10;3.70;;;16.40;48.90;;;;;;10332871;28;20207;-65
2021/12/05 02:55:52;;;;;;;4.33;3.90;;;16.40;49.00;;;;;;10331985;28;20222;-65
2021/12/05 03:01:21;;;;;;;4.37;3.80;;;16.40;49.10;;;;;;10331434;28;20195;-66
2021/12/05 03:06:50;;;;;;;4.07;3.67;;;16.40;49.20;;;;;;10331689;28;20199;-65
2021/12/05 03:12:18;;;;;;;3.90;3.50;;;16.30;49.20;;;;;;10333729;28;20245;-65
2021/12/05 03:17:41;;;;;;;4.50;4.10;;;16.30;49.30;;;;;;10333328;28;20206;-65
2021/12/05 03:23:04;;;;;;;4.17;3.77;;;16.30;49.40;;;;;;10333324;28;20724;-65
2021/12/05 03:28:28;;;;;;;3.97;3.50;;;16.30;49.30;;;;;;10332787;28;20574;-65
2021/12/05 03:33:50;;;;;;;3.80;3.50;;;16.30;49.20;;;;;;10332172;28;20338;-65
2021/12/05 03:39:12;;;;;;;3.50;3.20;;;16.30;49.20;;;;;;10330868;28;20203;-65
2021/12/05 03:44:38;;;;;;;3.83;3.43;;;16.30;49.20;;;;;;10290738;28;20208;-65
2021/12/05 03:50:00;;;;;;;3.50;3.20;;;16.30;49.10;;;;;;10330607;28;20195;-66
2021/12/05 03:55:22;;;;;;;3.53;3.23;;;16.30;48.90;;;;;;10394285;23;20226;-67
2021/12/05 04:00:48;;;;;;;3.40;3.10;;;16.30;48.80;;;;;;10407382;28;20550;-65
2021/12/05 04:06:13;;;;;;;2.87;2.67;;;16.40;48.70;;;;;;10406382;28;20218;-66
2021/12/05 04:11:40;;;;;;;3.20;2.90;;;16.40;48.50;;;;;;10410989;28;20217;-65
2021/12/05 04:17:06;;;;;;;2.60;2.40;;;16.40;48.60;;;;;;10408119;28;20194;-65
2021/12/05 04:22:28;;;;;;;2.80;2.60;;;16.40;48.80;;;;;;10410178;28;20221;-66
2021/12/05 04:27:54;;;;;;;2.70;2.50;;;16.40;48.90;;;;;;10410053;28;20194;-65
2021/12/05 04:33:19;;;;;;;3.10;2.90;;;16.40;48.80;;;;;;10409919;28;20222;-65
2021/12/05 04:38:41;;;;;;;2.90;2.37;;;16.40;48.80;;;;;;10404092;28;20194;-65
2021/12/05 04:44:04;;;;;;;2.50;2.30;;;16.40;49.00;;;;;;10408858;28;20225;-64
2021/12/05 04:49:27;;;;;;;3.47;2.90;;;16.30;49.10;;;;;;10411038;28;20577;-65
2021/12/05 04:54:49;;;;;;;3.23;2.93;;;16.30;49.10;;;;;;10409150;28;20221;-65
2021/12/05 05:00:15;;;;;;;4.17;2.37;;;16.30;49.00;;;;;;10409857;28;20205;-65
2021/12/05 05:05:45;;;;;;;3.50;2.77;;;16.30;49.10;;;;;;10373409;28;20206;-65
2021/12/05 05:11:11;;;;;;;3.43;2.97;;;16.30;49.20;;;;;;10378094;28;20800;-65
2021/12/05 05:16:33;;;;;;;2.90;2.70;;;16.30;49.30;;;;;;10376815;28;20214;-65
2021/12/05 05:22:04;;;;;;;3.40;3.10;;;16.30;49.40;;;;;;10376500;28;20190;-65
2021/12/05 05:27:46;;;;;;;3.50;3.20;;;16.20;49.60;;;;;;10377611;28;20197;-65
2021/12/05 05:44:44;;;;;;;3.30;3.00;;;16.30;49.50;;;;;;10417023;28;20300;-66
2021/12/05 05:50:06;;;;;;;4.10;3.47;;;16.30;49.30;;;;;;10376713;28;20198;-66
2021/12/05 05:55:30;;;;;;;2.93;2.63;;;16.30;49.00;;;;;;10376261;28;20222;-65
2021/12/05 06:01:00;;;;;;;3.97;2.70;;;16.30;49.00;;;;;;10375578;28;20670;-66
2021/12/05 06:06:22;;;;;;;3.17;2.53;;;16.30;49.00;;;;;;10380144;28;20225;-67
2021/12/05 06:11:46;;;;;;;3.10;2.80;;;16.30;49.00;;;;;;10416459;28;20217;-65
2021/12/05 06:17:08;;;;;;;2.93;2.53;;;16.30;48.90;;;;;;10417228;28;20201;-65
2021/12/05 06:22:30;;;;;;;3.40;3.10;;;16.30;48.80;;;;;;10415901;28;20596;-63
2021/12/05 06:27:56;;;;;;;3.10;2.80;;;16.40;48.60;;;;;;10414449;28;20573;-65
2021/12/05 06:50:18;;;;;;;2.60;2.40;;;16.70;48.00;;;;;;10374455;28;20198;-65
2021/12/05 06:55:40;;;;;;;4.07;3.27;;;16.80;48.00;;;;;;10373343;28;20234;-65
2021/12/05 07:01:07;;;;;;;3.27;2.83;;;16.80;47.90;;;;;;10372897;28;20198;-65
2021/12/05 07:06:31;;;;;;;3.67;2.97;;;16.70;47.90;;;;;;10391491;28;20210;-65
2021/12/05 07:12:16;;;;;;;3.23;2.93;;;16.80;47.80;;;;;;10373151;28;20222;-64
2021/12/05 07:23:14;;;;;;;3.57;2.93;;;16.80;47.70;;;;;;10372784;28;20777;-66
2021/12/05 07:45:42;;;;;;;5.23;3.37;;;16.90;47.80;;;;;;10378842;28;20209;-65
2021/12/05 07:51:12;;;;;;;5.27;4.23;;;17.00;47.70;;;;;;10412373;28;20198;-67
2021/12/05 07:56:41;;;;;;;4.50;4.10;;;17.00;47.70;;;;;;10410620;28;20677;-64
2021/12/05 08:19:15;;;;;;;4.53;3.67;;;16.90;47.70;;;;;;10412153;28;20190;-65
2021/12/05 08:24:41;;;;;;;4.07;3.60;;;16.90;47.70;;;;;;10412631;28;20217;-65
2021/12/05 08:30:09;;;;;;;4.40;3.90;;;16.80;47.90;;;;;;10408259;28;20306;-66
2021/12/05 08:35:51;;;;;;;4.13;3.67;;;16.70;48.10;;;;;;10414472;28;20213;-67
2021/12/05 08:41:48;;;;;;;3.93;3.37;;;16.60;48.40;;;;;;10413945;28;20669;-66
2021/12/05 09:21:35;;;;;;;5.60;3.87;;;16.40;49.50;;;;;;10400324;28;20564;-65
2021/12/05 10:13:44;;;;;;;10.07;4.57;;;16.90;48.70;;;;;;10412150;28;20640;-66
2021/12/05 10:20:00;;;;;;;8.63;4.60;;;16.90;48.90;;;;;;10412434;28;20201;-68
2021/12/05 10:36:38;;;;;;;20.20;5.87;;;17.10;49.10;;;;;;10417908;28;20228;-67
2021/12/05 10:42:12;;;;;;;13.07;5.07;;;17.00;49.20;;;;;;10433459;28;20837;-67
2021/12/05 10:47:41;;;;;;;9.40;4.90;;;17.10;49.40;;;;;;10408610;28;20200;-67
2021/12/05 10:53:25;;;;;;;8.27;5.27;;;17.10;49.50;;;;;;10415861;28;20222;-68
2021/12/05 10:58:54;;;;;;;11.10;4.83;;;17.00;49.00;;;;;;10427654;28;20200;-67
2021/12/05 11:04:19;;;;;;;6.63;4.37;;;16.90;49.60;;;;;;10417838;28;21010;-67
2021/12/05 11:09:44;;;;;;;5.77;4.33;;;16.80;49.90;;;;;;10388708;28;20198;-67
2021/12/05 11:15:10;;;;;;;8.80;4.47;;;16.80;50.50;;;;;;10394105;28;20222;-67
2021/12/05 11:20:36;;;;;;;8.17;4.70;;;16.70;50.80;;;;;;10393693;28;20209;-67
2021/12/05 11:26:16;;;;;;;6.50;4.00;;;16.70;50.80;;;;;;10385026;28;20332;-67
2021/12/05 11:31:39;;;;;;;6.33;3.57;;;16.70;51.00;;;;;;10383510;28;20210;-67
2021/12/05 11:37:03;;;;;;;5.03;3.17;;;16.60;51.20;;;;;;10393937;28;20214;-67
2021/12/05 11:42:25;;;;;;;6.10;4.03;;;16.60;51.40;;;;;;10383471;28;20558;-67
2021/12/05 11:47:47;;;;;;;10.63;7.67;;;16.60;51.60;;;;;;10368240;28;20194;-66
2021/12/05 11:53:11;;;;;;;6.83;5.27;;;16.60;51.70;;;;;;10393676;28;20693;-67
2021/12/05 11:58:33;;;;;;;7.90;4.80;;;16.60;51.60;;;;;;10389667;28;20199;-67
2021/12/05 12:03:56;;;;;;;5.53;4.83;;;16.60;51.60;;;;;;10385938;28;20210;-67
2021/12/05 12:09:19;;;;;;;6.23;4.67;;;16.60;51.50;;;;;;10391452;28;20697;-67
2021/12/05 12:14:42;;;;;;;6.80;3.87;;;16.60;51.30;;;;;;10387014;28;20229;-67
2021/12/05 12:20:10;;;;;;;6.33;4.20;;;16.80;51.20;;;;;;10382611;28;20230;-67
2021/12/05 12:25:38;;;;;;;4.43;3.20;;;16.80;51.10;;;;;;10385446;28;20731;-66
2021/12/05 12:31:04;;;;;;;6.67;4.30;;;17.00;50.80;;;;;;10380877;28;20199;-67
2021/12/05 12:36:38;;;;;;;6.10;4.23;;;17.00;50.30;;;;;;10375437;28;20589;-67
2021/12/05 12:42:13;;;;;;;5.77;3.83;;;17.00;49.90;;;;;;10368807;28;20205;-67
2021/12/05 12:47:37;;;;;;;4.97;3.60;;;17.10;50.70;;;;;;10380492;28;20229;-67
2021/12/05 12:53:06;;;;;;;4.37;3.83;;;17.20;51.20;;;;;;10373141;28;20218;-68
2021/12/05 12:58:49;;;;;;;5.17;4.10;;;17.20;51.00;;;;;;10378479;28;20581;-68
2021/12/05 13:04:35;;;;;;;6.23;3.90;;;17.30;50.90;;;;;;10375374;28;20217;-68
2021/12/05 13:10:06;;;;;;;6.43;4.40;;;17.30;51.00;;;;;;10381972;28;20194;-70
2021/12/05 13:15:42;;;;;;;5.97;4.63;;;17.30;50.90;;;;;;10378911;28;20230;-69
2021/12/05 13:21:07;;;;;;;6.63;4.43;;;17.30;51.40;;;;;;10369703;28;20202;-69
2021/12/05 13:26:38;;;;;;;5.93;4.13;;;17.30;52.00;;;;;;10375973;28;20218;-68
2021/12/05 13:32:10;;;;;;;6.67;5.13;;;17.20;52.40;;;;;;10376632;28;20437;-71
2021/12/05 13:37:36;;;;;;;5.90;4.43;;;17.40;52.00;;;;;;10378338;28;20456;-69
2021/12/05 13:43:05;;;;;;;5.63;4.10;;;17.20;52.50;;;;;;10364244;28;20731;-73
2021/12/05 13:48:30;;;;;;;6.70;4.95;;;17.10;53.10;;;;;;10370737;28;20763;-64
2021/12/05 13:53:55;;;;;;;5.23;3.90;;;17.90;51.20;;;;;;10367362;28;20226;-65
2021/12/05 13:59:26;;;;;;;4.57;3.97;;;17.40;52.40;;;;;;10368718;28;20194;-65
2021/12/05 14:04:50;;;;;;;5.00;3.67;;;17.20;53.10;;;;;;10369440;28;20223;-64
2021/12/05 14:10:13;;;;;;;5.40;3.70;;;17.20;53.40;;;;;;10372634;28;20205;-65
2021/12/05 14:15:35;;;;;;;9.73;3.90;;;17.10;53.40;;;;;;10370333;28;20316;-67
2021/12/05 14:21:12;;;;;;;4.90;3.47;;;17.00;53.50;;;;;;10361121;28;20589;-68
2021/12/05 14:26:38;;;;;;;8.70;4.30;;;17.00;53.30;;;;;;10369800;28;20296;-68
2021/12/05 14:32:04;;;;;;;4.97;3.67;;;17.00;52.90;;;;;;10369869;28;20198;-68
2021/12/05 14:37:33;;;;;;;6.03;4.07;;;17.10;52.70;;;;;;10407419;28;20213;-68
2021/12/05 14:42:58;;;;;;;5.10;3.30;;;17.10;52.40;;;;;;10399153;28;20396;-68
2021/12/05 14:48:21;;;;;;;4.17;3.00;;;17.10;52.40;;;;;;10400749;28;20727;-68
2021/12/05 14:53:44;;;;;;;4.03;3.00;;;17.10;52.20;;;;;;10408955;28;20217;-68
2021/12/05 14:59:10;;;;;;;5.30;2.87;;;17.10;51.90;;;;;;10388233;28;20212;-67
2021/12/05 15:04:37;;;;;;;2.97;2.47;;;17.10;52.30;;;;;;10411632;28;20210;-68
2021/12/05 15:10:01;;;;;;;3.57;2.57;;;17.10;52.70;;;;;;10410147;28;20198;-67
2021/12/05 15:15:26;;;;;;;4.40;2.60;;;17.10;52.90;;;;;;10404487;28;20230;-66
2021/12/05 15:20:48;;;;;;;3.57;2.50;;;17.00;53.00;;;;;;10390426;28;20209;-67
2021/12/05 15:26:12;;;;;;;5.13;2.90;;;17.00;53.00;;;;;;10406004;28;20717;-67
2021/12/05 15:31:37;;;;;;;5.27;3.20;;;17.00;53.00;;;;;;10407901;28;20202;-68
2021/12/05 15:37:06;;;;;;;4.50;3.10;;;17.00;53.30;;;;;;10406382;28;20241;-66
2021/12/05 15:42:33;;;;;;;5.07;2.83;;;17.00;53.30;;;;;;10392086;28;20230;-68
2021/12/05 15:47:55;;;;;;;4.73;2.80;;;16.90;53.40;;;;;;10387952;28;20202;-67
2021/12/05 15:53:17;;;;;;;3.43;2.80;;;16.90;53.50;;;;;;10415319;22;20233;-65
2021/12/05 15:58:44;;;;;;;3.30;2.47;;;16.80;53.40;;;;;;10441129;28;20201;-63
2021/12/05 16:04:18;;;;;;;4.53;2.33;;;16.80;53.50;;;;;;10435009;28;20686;-65
2021/12/05 16:09:43;;;;;;;3.93;2.87;;;16.80;53.40;;;;;;10405115;28;20201;-65
2021/12/05 16:15:07;;;;;;;4.63;2.57;;;16.80;52.80;;;;;;10396331;28;20225;-64
2021/12/05 16:20:37;;;;;;;5.33;2.50;;;16.90;52.30;;;;;;10405912;28;20593;-64
2021/12/05 16:26:09;;;;;;;2.60;1.83;;;17.00;51.50;;;;;;10406710;28;20213;-64
2021/12/05 16:31:35;;;;;;;2.83;2.17;;;17.00;51.60;;;;;;10412132;28;20292;-64
2021/12/05 16:37:00;;;;;;;2.53;1.90;;;17.00;51.80;;;;;;10407579;28;20214;-64
2021/12/05 16:42:24;;;;;;;1.70;1.60;;;17.00;51.80;;;;;;10406568;28;20209;-63
2021/12/05 16:47:48;;;;;;;2.27;2.00;;;16.90;51.90;;;;;;10396210;28;20210;-63
2021/12/05 16:53:13;;;;;;;4.27;2.13;;;16.90;51.90;;;;;;10400607;28;20229;-63
2021/12/05 16:58:35;;;;;;;2.80;2.23;;;16.90;52.00;;;;;;10409216;28;20212;-64
2021/12/05 17:03:58;;;;;;;2.67;1.97;;;16.80;52.00;;;;;;10409500;28;20221;-64
2021/12/05 17:09:21;;;;;;;2.97;2.00;;;16.80;52.10;;;;;;10410704;28;20680;-64
2021/12/05 17:14:43;;;;;;;3.07;2.50;;;16.80;52.20;;;;;;10401165;28;20221;-62
2021/12/05 17:20:25;;;;;;;4.03;2.33;;;16.80;52.10;;;;;;10401420;28;20202;-64
2021/12/05 17:25:49;;;;;;;3.10;2.60;;;16.80;52.20;;;;;;10409676;28;20214;-64
2021/12/05 17:31:15;;;;;;;3.20;2.63;;;16.70;52.20;;;;;;10410393;28;20589;-64
2021/12/05 17:36:41;;;;;;;3.63;3.13;;;16.80;51.90;;;;;;10409267;28;20241;-64
2021/12/05 17:42:06;;;;;;;4.00;3.40;;;16.80;51.40;;;;;;10389556;28;20688;-64
2021/12/05 17:47:30;;;;;;;2.87;2.57;;;16.90;50.80;;;;;;10387651;28;20210;-64
2021/12/05 17:52:53;;;;;;;3.77;3.07;;;17.00;51.60;;;;;;10401929;28;20213;-64
2021/12/05 17:58:33;;;;;;;3.67;3.10;;;17.00;50.60;;;;;;10402176;28;20200;-64
2021/12/05 18:03:56;;;;;;;4.03;3.00;;;16.90;50.50;;;;;;10410923;28;20210;-63
2021/12/05 18:09:19;;;;;;;3.47;3.10;;;16.90;50.60;;;;;;10411162;28;20201;-63
2021/12/05 18:14:42;;;;;;;3.53;3.20;;;16.90;50.60;;;;;;10413374;28;20214;-62
2021/12/05 18:20:05;;;;;;;4.00;3.50;;;16.90;50.60;;;;;;10419092;28;20200;-64
2021/12/05 18:25:30;;;;;;;4.20;3.80;;;16.80;50.60;;;;;;10418594;28;20688;-64
2021/12/05 18:30:52;;;;;;;3.80;3.43;;;16.80;50.50;;;;;;10418627;28;20625;-63
2021/12/05 18:36:14;;;;;;;4.53;3.50;;;16.80;50.60;;;;;;10417938;28;20226;-64
2021/12/05 18:41:39;;;;;;;4.43;3.70;;;16.80;50.60;;;;;;10418075;28;20557;-63
2021/12/05 18:47:01;;;;;;;4.73;4.17;;;16.70;50.80;;;;;;10399369;28;20282;-63
2021/12/05 18:52:24;;;;;;;5.10;4.30;;;16.70;50.80;;;;;;10404339;28;20202;-63
2021/12/05 18:57:51;;;;;;;5.40;4.53;;;16.60;50.70;;;;;;10401524;28;20221;-63
2021/12/05 19:09:13;;;;;;;5.17;4.67;;;16.70;50.10;;;;;;10415721;28;20623;-63
2021/12/05 19:14:39;;;;;;;6.30;5.40;;;16.80;49.60;;;;;;10416578;28;20220;-66
2021/12/05 19:20:09;;;;;;;6.90;6.00;;;16.90;49.10;;;;;;10415506;28;20197;-63
2021/12/05 19:25:34;;;;;;;6.70;5.70;;;16.90;49.00;;;;;;10416664;28;20214;-64
2021/12/05 19:30:58;;;;;;;6.97;5.87;;;16.90;49.10;;;;;;10415621;28;20672;-64
2021/12/05 19:36:21;;;;;;;5.87;5.03;;;16.90;49.30;;;;;;10401546;28;20225;-64
2021/12/05 19:41:43;;;;;;;6.20;5.60;;;16.80;49.40;;;;;;10415916;28;20223;-64
2021/12/05 19:47:07;;;;;;;6.17;5.27;;;16.80;49.60;;;;;;10395712;28;20219;-64
2021/12/05 19:52:29;;;;;;;6.83;5.67;;;16.80;49.50;;;;;;10404155;28;20202;-64
2021/12/05 19:57:52;;;;;;;5.90;5.30;;;16.80;49.60;;;;;;10414434;28;20225;-64
2021/12/05 20:03:16;;;;;;;6.10;5.50;;;16.70;49.70;;;;;;10405013;28;20200;-65
2021/12/05 20:08:38;;;;;;;5.63;4.83;;;16.70;49.80;;;;;;10414650;28;20692;-65
2021/12/05 20:14:00;;;;;;;6.67;5.37;;;16.70;49.90;;;;;;10414429;28;20229;-65
2021/12/05 20:19:24;;;;;;;6.87;6.00;;;16.70;49.80;;;;;;10414532;28;20220;-63
2021/12/05 20:24:46;;;;;;;7.60;6.30;;;16.70;49.80;;;;;;10413986;28;20213;-63
2021/12/05 20:30:11;;;;;;;6.10;5.40;;;16.70;49.70;;;;;;10407707;28;20270;-64
2021/12/05 20:35:35;;;;;;;5.73;5.17;;;16.70;49.90;;;;;;10372525;28;20226;-63
2021/12/05 20:40:57;;;;;;;6.80;5.67;;;16.70;49.30;;;;;;10371912;28;20194;-64
2021/12/05 20:46:19;;;;;;;6.60;5.20;;;16.70;49.20;;;;;;10392345;28;20210;-63
2021/12/05 20:51:43;;;;;;;6.75;6.05;;;16.80;49.40;;;;;;10391257;28;20427;-60
2021/12/05 20:57:10;;;;;;;5.80;5.03;;;17.20;48.10;;;;;;10371331;28;20226;-63
2021/12/05 21:02:32;;;;;;;5.93;5.33;;;17.00;48.70;;;;;;10400520;28;20209;-64
2021/12/05 21:07:58;;;;;;;5.50;4.67;;;16.80;49.10;;;;;;10412981;28;20232;-64
2021/12/05 21:13:22;;;;;;;5.83;4.60;;;16.80;49.40;;;;;;10404984;28;20190;-64
2021/12/05 21:18:45;;;;;;;6.13;4.90;;;16.70;49.50;;;;;;10411377;28;20194;-63
2021/12/05 21:24:09;;;;;;;7.17;4.83;;;16.70;49.60;;;;;;10410679;28;20237;-63
2021/12/05 21:29:31;;;;;;;8.27;5.00;;;16.70;50.00;;;;;;10395007;28;20444;-64
2021/12/05 21:34:53;;;;;;;5.53;4.93;;;16.70;50.20;;;;;;10370185;28;20221;-64
2021/12/05 21:40:20;;;;;;;5.90;4.90;;;16.70;49.80;;;;;;10367030;28;20277;-64
2021/12/05 21:45:43;;;;;;;5.33;4.83;;;16.70;49.70;;;;;;10404712;28;20576;-64
2021/12/05 21:51:08;;;;;;;6.77;5.30;;;16.70;49.70;;;;;;10393852;28;20209;-64
2021/12/05 21:56:32;;;;;;;6.53;5.17;;;16.60;49.70;;;;;;10508882;22;20227;-65
2021/12/05 22:01:54;;;;;;;5.30;4.80;;;16.60;49.60;;;;;;10568593;28;20549;-64
2021/12/05 22:07:17;;;;;;;6.60;5.10;;;16.60;49.40;;;;;;10565883;28;20583;-65
2021/12/05 22:12:43;;;;;;;5.93;5.30;;;16.60;49.10;;;;;;10592468;28;20194;-65
2021/12/05 22:18:06;;;;;;;6.87;5.70;;;16.70;49.10;;;;;;10566140;28;20210;-65
2021/12/05 22:23:29;;;;;;;6.77;5.57;;;16.70;48.90;;;;;;10581663;28;20582;-64
2021/12/05 22:28:53;;;;;;;7.80;6.20;;;16.60;49.40;;;;;;10602823;28;20221;-64
2021/12/05 22:34:16;;;;;;;6.50;5.67;;;16.70;48.90;;;;;;10606519;28;20211;-65
2021/12/05 22:39:38;;;;;;;6.97;6.27;;;16.70;49.10;;;;;;10599207;28;20237;-64
2021/12/05 22:45:02;;;;;;;7.37;5.33;;;16.60;49.30;;;;;;10587133;28;20198;-64
2021/12/05 22:50:25;;;;;;;7.60;6.13;;;16.60;49.40;;;;;;10586754;28;20883;-65
2021/12/05 22:55:47;;;;;;;8.83;6.37;;;16.60;49.50;;;;;;10589586;28;20237;-65
2021/12/05 23:01:14;;;;;;;8.53;6.80;;;16.60;49.30;;;;;;10585270;27;20195;-64
2021/12/05 23:06:36;;;;;;;7.63;6.30;;;16.60;49.10;;;;;;10593693;27;22221;-64
2021/12/05 23:11:58;;;;;;;7.90;6.37;;;16.60;48.90;;;;;;10611440;27;20571;-64
2021/12/05 23:17:22;;;;;;;7.37;5.93;;;16.60;48.90;;;;;;10598141;27;20218;-64
2021/12/05 23:22:44;;;;;;;8.80;6.40;;;16.60;49.60;;;;;;10589375;27;20195;-64
2021/12/05 23:28:07;;;;;;;8.23;6.50;;;16.60;49.10;;;;;;10596118;27;20714;-65
2021/12/05 23:33:31;;;;;;;10.30;7.00;;;16.60;49.10;;;;;;10598760;27;20203;-65
2021/12/05 23:38:54;;;;;;;9.40;6.67;;;16.60;49.00;;;;;;10574111;27;20211;-64
2021/12/05 23:44:18;;;;;;;7.73;6.33;;;16.60;48.90;;;;;;10561810;27;20581;-65
2021/12/05 23:49:42;;;;;;;8.87;7.27;;;16.60;49.00;;;;;;10578457;28;20211;-64
2021/12/05 23:55:05;;;;;;;8.80;6.67;;;16.60;49.10;;;;;;10579131;28;20219;-64
